Montgomery, Vermont
Current Conditions -  °F | °C
As of 12:55 AM on Sunday 23 Nov 2014 (Local Time) from KEFK Reporting Station
Overcast Overcast  
Wind Chill: 26°   Ceiling: 600
Heat Index: 33°   Visibility: 7mi
Dew Point: 32°   Wind: 8mph
Humidity: 96%   Direction: 140°SE
Pressure: 29.91"   Gusts: NA
Location:  44.9°N, 72.64°W
Report Text: KEFK 230555Z AUTO 14007KT 7SM OVC006 01/00 A2991 RMK AO2 T00060000 10006 21010
Loading
Personal Weather Stations






























Interactive Weather Map New forecast layout! Learn more

10-Day Weather Forecast

Advertisements
Track Severe Weather on mobile